ST2 weather

Montreal / Marina Venise
Quebec, Canada

Public forecast

Using degrees Celsius for public forecast. Weather courtesy of forecast.io.

Closest aviation weather report (METAR) to Montreal / Marina Venise

Closest report is Montreal / Pierre Elliott Trudeau International Airport, 9.9 nm (18.2 km) S. Retrieved 2019/10/15 19:00 UTC (53 minutes ago):

CYUL 151900Z 22011G18KT 30SM SCT045 SCT250 13/01 A3005 RMK CU3CI1 SLP177

Closest aviation forecast (TAF) to Montreal / Marina Venise

Closest forecast is Montreal / Pierre Elliott Trudeau International Airport, 9.9 nm (18.2 km) S. Retrieved 2019/10/15 21:48 UTC (0 seconds ago):

TAF CYUL 152038Z 1521/1618 24010G20KT P6SM SCT050 BECMG 1521/1523 23010KT FM160100 VRB03KT P6SM FEW025 FM161000 10008KT P6SM BKN120 BECMG 1613/1615 10010G20KT RMK NXT FCST BY 160000Z